createdAt,value
2023-04-02T00:00:09.751Z,10.60
2023-04-02T00:02:49.263Z,10.50
2023-04-02T00:05:30.293Z,10.50
2023-04-02T00:08:25.432Z,10.60
2023-04-02T00:10:59.468Z,10.70
2023-04-02T00:13:39.547Z,10.60
2023-04-02T00:16:11.391Z,10.60
2023-04-02T00:18:46.503Z,10.50
2023-04-02T00:21:31.345Z,10.40
2023-04-02T00:24:01.473Z,10.40
2023-04-02T00:26:42.985Z,10.50
2023-04-02T00:29:12.316Z,10.40
2023-04-02T00:31:43.321Z,10.50
2023-04-02T00:34:23.062Z,10.40
2023-04-02T00:36:51.214Z,10.40
2023-04-02T00:39:24.919Z,10.40
2023-04-02T00:42:05.276Z,10.50
2023-04-02T00:44:37.913Z,10.50
2023-04-02T00:47:26.985Z,10.40
2023-04-02T00:50:39.277Z,10.50
2023-04-02T00:53:22.630Z,10.40
2023-04-02T00:55:49.846Z,10.40
2023-04-02T00:58:27.615Z,10.30
2023-04-02T01:00:55.151Z,10.40
2023-04-02T01:03:28.739Z,10.30
2023-04-02T01:06:04.965Z,10.50
2023-04-02T01:08:50.796Z,10.50
2023-04-02T01:11:27.086Z,10.50
2023-04-02T01:14:24.848Z,10.50
2023-04-02T01:17:18.657Z,10.50
2023-04-02T01:20:01.700Z,10.40
2023-04-02T01:22:48.186Z,10.40
2023-04-02T01:25:23.571Z,10.50
2023-04-02T01:28:21.614Z,10.60
2023-04-02T01:30:53.178Z,10.60
2023-04-02T01:33:32.955Z,10.60
2023-04-02T01:36:44.923Z,10.60
2023-04-02T01:39:48.290Z,10.60
2023-04-02T01:42:22.546Z,10.50
2023-04-02T01:44:52.504Z,10.60
2023-04-02T01:47:27.282Z,10.50
2023-04-02T01:50:17.977Z,10.40
2023-04-02T01:52:47.206Z,10.40
2023-04-02T01:55:19.185Z,10.40
2023-04-02T01:57:51.074Z,10.40
2023-04-02T02:00:19.688Z,10.40
2023-04-02T02:02:50.524Z,10.40
2023-04-02T02:05:21.029Z,10.40
2023-04-02T02:07:48.073Z,10.40
2023-04-02T02:10:18.895Z,10.30
2023-04-02T02:12:48.050Z,10.40
2023-04-02T02:15:20.778Z,10.40
2023-04-02T02:17:51.368Z,10.40
2023-04-02T02:20:18.954Z,10.40
2023-04-02T02:22:50.626Z,10.60
2023-04-02T02:25:24.596Z,10.50
2023-04-02T02:28:27.242Z,10.50
2023-04-02T02:31:02.873Z,10.40
2023-04-02T02:33:43.739Z,10.40
2023-04-02T02:36:10.862Z,10.40
2023-04-02T02:38:48.006Z,10.30
2023-04-02T02:41:18.021Z,10.30
2023-04-02T02:43:56.168Z,10.20
2023-04-02T02:46:25.456Z,10.20
2023-04-02T02:48:55.453Z,10.20
2023-04-02T02:51:47.347Z,10.30
2023-04-02T02:54:15.483Z,10.30
2023-04-02T02:56:50.790Z,10.40
2023-04-02T02:59:25.435Z,10.40
2023-04-02T03:01:54.057Z,10.50
2023-04-02T03:04:25.088Z,10.30
2023-04-02T03:06:57.732Z,10.40
2023-04-02T03:09:51.757Z,10.40
2023-04-02T03:12:40.373Z,10.40
2023-04-02T03:15:32.792Z,10.20
2023-04-02T03:18:08.808Z,10.50
2023-04-02T03:20:48.188Z,10.30
2023-04-02T03:23:30.787Z,10.30
2023-04-02T03:26:11.785Z,10.30
2023-04-02T03:28:46.784Z,10.20
2023-04-02T03:31:16.842Z,10.30
2023-04-02T03:33:50.616Z,10.20
2023-04-02T03:36:24.441Z,10.30
2023-04-02T03:39:00.105Z,10.20
2023-04-02T03:41:38.971Z,10.20
2023-04-02T03:44:16.627Z,10.10
2023-04-02T03:46:57.378Z,10.20
2023-04-02T03:49:39.636Z,10.10
2023-04-02T03:52:12.415Z,10.20
2023-04-02T03:54:40.969Z,10.40
2023-04-02T03:57:36.925Z,10.20
2023-04-02T04:00:27.339Z,10.20
2023-04-02T04:02:59.315Z,10.20
2023-04-02T04:06:14.225Z,10.10
2023-04-02T04:08:54.819Z,10.20
2023-04-02T04:11:30.960Z,10.30
2023-04-02T04:14:06.266Z,10.10
2023-04-02T04:16:47.686Z,10.10
2023-04-02T04:19:21.925Z,10.10
2023-04-02T04:21:49.011Z,10.00
2023-04-02T04:24:29.123Z,10.00
2023-04-02T04:27:04.345Z,9.90
2023-04-02T04:29:58.570Z,9.90
2023-04-02T04:32:27.716Z,10.00
2023-04-02T04:35:01.120Z,9.90
2023-04-02T04:37:43.108Z,10.10
2023-04-02T04:40:26.158Z,10.20
2023-04-02T04:42:56.518Z,10.00
2023-04-02T04:46:01.871Z,9.80
2023-04-02T04:49:05.533Z,10.00
2023-04-02T04:51:39.217Z,9.90
2023-04-02T04:54:06.278Z,9.90
2023-04-02T04:56:33.656Z,10.00
2023-04-02T04:59:22.622Z,9.80
2023-04-02T05:02:12.816Z,9.80
2023-04-02T05:04:42.247Z,9.90
2023-04-02T05:07:23.234Z,9.80
2023-04-02T05:09:58.991Z,9.90
2023-04-02T05:12:48.565Z,10.00
2023-04-02T05:15:37.714Z,9.90
2023-04-02T05:21:18.272Z,9.80
2023-04-02T05:23:47.613Z,9.70
2023-04-02T05:26:37.566Z,9.70
2023-04-02T05:29:16.087Z,9.70
2023-04-02T05:31:45.134Z,9.70
2023-04-02T05:34:13.300Z,9.70
2023-04-02T05:36:40.542Z,9.80
2023-04-02T05:39:11.622Z,9.70
2023-04-02T05:41:45.960Z,9.80
2023-04-02T05:44:24.521Z,9.90
2023-04-02T05:47:29.331Z,9.90
2023-04-02T05:50:07.853Z,9.90
2023-04-02T05:52:42.819Z,10.00
2023-04-02T05:55:12.627Z,9.90
2023-04-02T06:00:23.715Z,9.70
2023-04-02T06:03:02.689Z,9.80
2023-04-02T06:05:38.110Z,9.90
2023-04-02T06:08:14.847Z,9.90
2023-04-02T06:10:54.706Z,9.80
2023-04-02T06:13:22.199Z,9.70
2023-04-02T06:15:49.391Z,9.80
2023-04-02T06:18:29.942Z,9.70
2023-04-02T06:20:58.341Z,9.70
2023-04-02T06:23:32.262Z,9.70
2023-04-02T06:26:08.147Z,9.70
2023-04-02T06:28:52.791Z,9.70
2023-04-02T06:31:28.951Z,9.80
2023-04-02T06:33:56.553Z,9.70
2023-04-02T06:36:27.822Z,9.60
2023-04-02T06:39:03.318Z,9.60
2023-04-02T06:41:30.374Z,9.60
2023-04-02T06:44:03.470Z,9.70
2023-04-02T06:46:45.739Z,9.70
2023-04-02T06:49:20.181Z,9.70
2023-04-02T06:51:50.541Z,9.60
2023-04-02T06:54:18.934Z,9.60
2023-04-02T06:56:47.635Z,9.50
2023-04-02T06:59:15.817Z,9.50
2023-04-02T07:01:52.792Z,9.70
2023-04-02T07:04:21.170Z,9.70
2023-04-02T07:06:47.986Z,9.60
2023-04-02T07:09:15.120Z,9.60
2023-04-02T07:11:42.078Z,9.70
2023-04-02T07:14:13.032Z,9.70
2023-04-02T07:16:41.487Z,9.80
2023-04-02T07:19:22.832Z,9.90
2023-04-02T07:21:49.736Z,9.90
2023-04-02T07:24:16.759Z,10.00
2023-04-02T07:26:44.016Z,9.80
2023-04-02T07:29:15.976Z,9.90
2023-04-02T07:31:43.240Z,9.90
2023-04-02T07:34:10.699Z,9.90
2023-04-02T07:36:37.994Z,9.80
2023-04-02T07:39:05.434Z,9.70
2023-04-02T07:41:32.532Z,9.60
2023-04-02T07:43:59.531Z,9.70
2023-04-02T07:46:26.682Z,9.70
2023-04-02T07:48:54.018Z,9.70
2023-04-02T07:51:25.161Z,9.80
2023-04-02T07:53:56.078Z,9.80
2023-04-02T07:56:25.036Z,9.60
2023-04-02T07:58:51.887Z,9.60
2023-04-02T08:01:25.901Z,9.70
2023-04-02T08:03:54.704Z,9.70
2023-04-02T08:06:22.581Z,9.80
2023-04-02T08:08:50.205Z,9.70
2023-04-02T08:11:17.507Z,9.70
2023-04-02T08:13:44.558Z,9.80
2023-04-02T08:16:11.976Z,9.90
2023-04-02T08:18:39.608Z,9.80
2023-04-02T08:21:08.824Z,9.80
2023-04-02T08:23:37.276Z,9.70
2023-04-02T08:26:05.940Z,9.60
2023-04-02T08:28:33.074Z,9.70
2023-04-02T08:31:00.285Z,9.70
2023-04-02T08:33:28.035Z,9.80
2023-04-02T08:35:54.912Z,9.90
2023-04-02T08:38:22.516Z,9.80
2023-04-02T08:40:52.351Z,9.80
2023-04-02T08:43:31.795Z,9.90
2023-04-02T08:46:07.629Z,9.80
2023-04-02T08:48:37.906Z,9.90
2023-04-02T08:51:08.352Z,9.90
2023-04-02T08:53:39.506Z,10.00
2023-04-02T08:56:20.317Z,9.80
2023-04-02T08:58:54.631Z,9.60
2023-04-02T09:01:52.274Z,9.80
2023-04-02T09:04:23.804Z,9.70
2023-04-02T09:06:54.393Z,9.50
2023-04-02T09:09:22.472Z,9.60
2023-04-02T09:12:04.272Z,9.70
2023-04-02T09:14:31.444Z,9.70
2023-04-02T09:17:04.015Z,9.60
2023-04-02T09:19:41.617Z,9.50
2023-04-02T09:22:24.242Z,9.30
2023-04-02T09:24:57.387Z,9.60
2023-04-02T09:27:30.172Z,9.60
2023-04-02T09:30:21.842Z,9.60
2023-04-02T09:32:54.641Z,9.70
2023-04-02T09:35:27.595Z,9.60
2023-04-02T09:38:21.903Z,9.80
2023-04-02T09:40:54.330Z,9.70
2023-04-02T09:43:22.386Z,9.70
2023-04-02T09:45:58.429Z,9.70
2023-04-02T09:48:39.505Z,9.70
2023-04-02T09:51:17.723Z,9.60
2023-04-02T09:54:07.147Z,9.70
2023-04-02T09:56:36.094Z,9.60
2023-04-02T09:59:13.825Z,9.70
2023-04-02T10:01:57.072Z,9.70
2023-04-02T10:04:48.063Z,9.80
2023-04-02T10:07:37.416Z,9.70
2023-04-02T10:10:26.312Z,9.60
2023-04-02T10:13:27.230Z,9.50
2023-04-02T10:16:09.145Z,9.50
2023-04-02T10:18:44.954Z,9.60
2023-04-02T10:21:17.266Z,9.60
2023-04-02T10:23:44.537Z,9.50
2023-04-02T10:26:43.439Z,9.60
2023-04-02T10:29:25.544Z,9.50
2023-04-02T10:32:24.944Z,9.80
2023-04-02T10:35:01.965Z,9.70
2023-04-02T10:37:44.572Z,9.70
2023-04-02T10:40:35.782Z,9.70
2023-04-02T10:43:41.874Z,9.70
2023-04-02T10:46:26.974Z,9.90
2023-04-02T10:49:00.052Z,9.90
2023-04-02T10:51:37.412Z,9.80
2023-04-02T10:54:31.032Z,9.80
2023-04-02T10:57:12.007Z,9.90
2023-04-02T11:00:09.637Z,9.80
2023-04-02T11:02:41.655Z,9.70
2023-04-02T11:05:43.464Z,9.70
2023-04-02T11:08:28.766Z,9.50
2023-04-02T11:11:08.317Z,9.40
2023-04-02T11:13:47.871Z,9.40
2023-04-02T11:16:15.577Z,9.50
2023-04-02T11:18:44.901Z,9.80
2023-04-02T11:21:44.854Z,9.60
2023-04-02T11:24:30.542Z,10.00
2023-04-02T11:27:11.266Z,10.00
2023-04-02T11:29:55.749Z,9.90
2023-04-02T11:32:25.165Z,9.80
2023-04-02T11:35:05.236Z,10.00
2023-04-02T11:37:34.808Z,10.20
2023-04-02T11:40:11.788Z,10.10
2023-04-02T11:42:48.720Z,10.00
2023-04-02T11:45:21.681Z,9.90
2023-04-02T11:48:08.379Z,10.00
2023-04-02T11:50:43.007Z,9.90
2023-04-02T11:53:13.220Z,9.80
2023-04-02T11:55:41.611Z,10.00
2023-04-02T11:58:41.076Z,10.10
2023-04-02T12:01:32.338Z,10.00
2023-04-02T12:04:08.124Z,9.80
2023-04-02T12:06:51.021Z,9.90
2023-04-02T12:09:25.502Z,10.00
2023-04-02T12:11:55.735Z,9.90
2023-04-02T12:14:43.901Z,9.90
2023-04-02T12:17:17.014Z,10.10
2023-04-02T12:19:51.476Z,10.10
2023-04-02T12:22:24.159Z,10.00
2023-04-02T12:24:54.760Z,10.10
2023-04-02T12:27:27.904Z,10.10
2023-04-02T12:30:10.377Z,10.00
2023-04-02T12:32:37.702Z,10.10
2023-04-02T12:35:06.358Z,10.30
2023-04-02T12:37:33.247Z,10.50
2023-04-02T12:40:07.451Z,10.60
2023-04-02T12:42:37.275Z,10.50
2023-04-02T12:45:06.825Z,10.60
2023-04-02T12:47:34.230Z,10.80
2023-04-02T12:50:02.362Z,10.80
2023-04-02T12:52:30.662Z,10.80
2023-04-02T12:55:06.264Z,10.80
2023-04-02T12:57:36.463Z,10.80
2023-04-02T13:00:21.848Z,10.90
2023-04-02T13:02:51.858Z,10.90
2023-04-02T13:05:40.301Z,10.80
2023-04-02T13:08:16.431Z,10.90
2023-04-02T13:10:44.764Z,11.00
2023-04-02T13:13:17.461Z,10.90
2023-04-02T13:15:44.688Z,10.80
2023-04-02T13:18:22.483Z,10.90
2023-04-02T13:20:59.029Z,10.90
2023-04-02T13:23:28.905Z,10.90
2023-04-02T13:26:17.459Z,10.90
2023-04-02T13:29:17.114Z,10.90
2023-04-02T13:31:44.240Z,10.80
2023-04-02T13:34:11.650Z,10.80
2023-04-02T13:36:38.881Z,10.70
2023-04-02T13:39:06.721Z,10.60
2023-04-02T13:41:45.407Z,10.60
2023-04-02T13:44:23.909Z,10.50
2023-04-02T13:46:51.935Z,10.60
2023-04-02T13:49:19.017Z,10.60
2023-04-02T13:51:58.009Z,10.50
2023-04-02T13:54:37.348Z,10.50
2023-04-02T13:57:04.463Z,10.60
2023-04-02T13:59:31.711Z,10.80
2023-04-02T14:02:05.680Z,10.60
2023-04-02T14:04:38.162Z,10.40
2023-04-02T14:07:23.525Z,10.40
2023-04-02T14:10:01.183Z,10.40
2023-04-02T14:12:41.454Z,10.40
2023-04-02T14:15:38.486Z,10.40
2023-04-02T14:18:24.583Z,10.20
2023-04-02T14:21:22.395Z,10.00
2023-04-02T14:24:03.330Z,10.00
2023-04-02T14:26:39.766Z,10.20
2023-04-02T14:29:18.407Z,10.20
2023-04-02T14:32:07.108Z,10.10
2023-04-02T14:34:52.384Z,10.30
2023-04-02T14:37:52.998Z,10.20
2023-04-02T14:40:32.425Z,10.00
2023-04-02T14:43:05.837Z,10.10
2023-04-02T14:46:00.202Z,10.00
2023-04-02T14:48:46.358Z,10.00
2023-04-02T14:51:16.322Z,9.90
2023-04-02T14:54:01.379Z,9.90
2023-04-02T14:56:31.809Z,10.00
2023-04-02T14:59:21.063Z,10.20
2023-04-02T15:01:52.770Z,10.20
2023-04-02T15:04:41.164Z,10.20
2023-04-02T15:07:22.401Z,10.10
2023-04-02T15:10:04.741Z,10.00
2023-04-02T15:12:36.287Z,10.00
2023-04-02T15:15:26.910Z,10.10
2023-04-02T15:17:58.935Z,10.10
2023-04-02T15:20:38.555Z,10.20
2023-04-02T15:23:31.566Z,10.00
2023-04-02T15:26:23.529Z,10.00
2023-04-02T15:29:28.996Z,10.00
2023-04-02T15:32:08.788Z,10.20
2023-04-02T15:34:52.362Z,10.10
2023-04-02T15:37:34.290Z,10.10
2023-04-02T15:40:08.553Z,10.10
2023-04-02T15:42:43.516Z,10.00
2023-04-02T15:45:32.220Z,10.10
2023-04-02T15:48:12.323Z,9.80
2023-04-02T15:51:32.034Z,9.90
2023-04-02T15:54:20.807Z,9.80
2023-04-02T15:57:18.231Z,9.90
2023-04-02T16:00:22.346Z,9.90
2023-04-02T16:03:17.354Z,9.90
2023-04-02T16:06:29.142Z,10.00
2023-04-02T16:09:29.454Z,10.10
2023-04-02T16:12:01.677Z,10.00
2023-04-02T16:14:31.609Z,9.90
2023-04-02T16:17:17.645Z,9.80
2023-04-02T16:19:56.937Z,10.00
2023-04-02T16:22:29.147Z,9.90
2023-04-02T16:25:25.394Z,10.10
2023-04-02T16:28:14.006Z,10.00
2023-04-02T16:30:58.021Z,10.10
2023-04-02T16:33:56.803Z,10.20
2023-04-02T16:36:53.884Z,10.00
2023-04-02T16:39:57.062Z,10.00
2023-04-02T16:43:09.575Z,10.00
2023-04-02T16:45:54.912Z,10.00
2023-04-02T16:48:33.837Z,9.90
2023-04-02T16:51:11.183Z,10.10
2023-04-02T16:54:02.051Z,10.00
2023-04-02T16:56:51.180Z,10.10
2023-04-02T16:59:47.385Z,10.20
2023-04-02T17:02:18.608Z,10.10
2023-04-02T17:05:04.981Z,9.90
2023-04-02T17:07:40.273Z,10.00
2023-04-02T17:10:24.207Z,9.90
2023-04-02T17:12:57.235Z,10.00
2023-04-02T17:15:28.719Z,10.10
2023-04-02T17:18:03.479Z,10.00
2023-04-02T17:20:32.099Z,9.90
2023-04-02T17:22:59.800Z,10.00
2023-04-02T17:25:34.156Z,9.90
2023-04-02T17:28:02.683Z,9.80
2023-04-02T17:30:41.279Z,9.90
2023-04-02T17:33:16.230Z,10.00
2023-04-02T17:36:07.563Z,9.90
2023-04-02T17:39:00.068Z,10.10
2023-04-02T17:41:33.177Z,10.00
2023-04-02T17:44:30.207Z,10.00
2023-04-02T17:47:25.814Z,10.00
2023-04-02T17:50:32.979Z,9.80
2023-04-02T17:53:10.289Z,9.70
2023-04-02T17:55:58.230Z,9.70
2023-04-02T17:58:35.991Z,9.70
2023-04-02T18:01:21.415Z,9.60
2023-04-02T18:03:53.523Z,9.50
2023-04-02T18:06:33.347Z,9.50
2023-04-02T18:09:56.621Z,9.50
2023-04-02T18:12:23.614Z,9.30
2023-04-02T18:15:04.812Z,9.40
2023-04-02T18:17:39.947Z,9.40
2023-04-02T18:20:22.837Z,9.50
2023-04-02T18:23:13.932Z,9.40
2023-04-02T18:25:54.832Z,9.40
2023-04-02T18:28:42.814Z,9.30
2023-04-02T18:31:25.195Z,9.20
2023-04-02T18:34:21.732Z,9.20
2023-04-02T18:36:52.063Z,9.30
2023-04-02T18:39:37.371Z,9.30
2023-04-02T18:42:31.360Z,9.10
2023-04-02T18:45:12.110Z,8.90
2023-04-02T18:48:00.103Z,9.00
2023-04-02T18:50:34.869Z,9.10
2023-04-02T18:53:21.351Z,9.00
2023-04-02T18:56:04.067Z,8.90
2023-04-02T18:58:43.045Z,8.90
2023-04-02T19:01:15.499Z,8.80
2023-04-02T19:03:54.896Z,8.80
2023-04-02T19:06:42.145Z,8.70
2023-04-02T19:09:23.872Z,8.60
2023-04-02T19:11:53.027Z,8.60
2023-04-02T19:14:23.357Z,8.30
2023-04-02T19:17:06.672Z,8.20
2023-04-02T19:19:54.187Z,8.20
2023-04-02T19:22:50.110Z,8.00
2023-04-02T19:25:34.852Z,8.10
2023-04-02T19:28:26.414Z,8.00
2023-04-02T19:31:04.089Z,8.10
2023-04-02T19:33:48.025Z,8.00
2023-04-02T19:36:41.681Z,7.90
2023-04-02T19:39:29.493Z,7.90
2023-04-02T19:42:27.820Z,7.80
2023-04-02T19:44:55.466Z,7.90
2023-04-02T19:47:25.433Z,7.80
2023-04-02T19:49:52.382Z,7.70
2023-04-02T19:52:19.563Z,7.70
2023-04-02T19:54:46.556Z,7.60
2023-04-02T19:57:16.745Z,7.60
2023-04-02T19:59:43.651Z,7.60
2023-04-02T20:02:13.597Z,7.70
2023-04-02T20:04:40.553Z,7.70
2023-04-02T20:07:07.423Z,7.70
2023-04-02T20:09:34.437Z,7.70
2023-04-02T20:12:01.473Z,7.70
2023-04-02T20:14:28.398Z,7.50
2023-04-02T20:16:55.741Z,7.40
2023-04-02T20:19:24.063Z,7.60
2023-04-02T20:21:51.913Z,7.60
2023-04-02T20:24:18.914Z,7.40
2023-04-02T20:26:45.972Z,7.40
2023-04-02T20:29:12.905Z,7.40
2023-04-02T20:31:40.067Z,7.30
2023-04-02T20:34:09.395Z,7.30
2023-04-02T20:36:36.537Z,7.20
2023-04-02T20:39:03.852Z,7.00
2023-04-02T20:41:31.223Z,7.10
2023-04-02T20:43:58.211Z,7.00
2023-04-02T20:46:25.785Z,7.00
2023-04-02T20:48:53.036Z,7.00
2023-04-02T20:51:20.085Z,7.00
2023-04-02T20:53:47.798Z,6.90
2023-04-02T20:56:16.532Z,6.70
2023-04-02T20:58:44.162Z,6.70
2023-04-02T21:01:18.535Z,6.70
2023-04-02T21:03:45.766Z,6.60
2023-04-02T21:06:18.319Z,6.50
2023-04-02T21:08:45.616Z,6.50
2023-04-02T21:11:12.823Z,6.50
2023-04-02T21:13:44.281Z,6.40
2023-04-02T21:16:17.175Z,6.40
2023-04-02T21:18:44.902Z,6.40
2023-04-02T21:21:13.879Z,6.20
2023-04-02T21:23:42.295Z,6.30
2023-04-02T21:26:13.689Z,6.20
2023-04-02T21:28:41.310Z,6.30
2023-04-02T21:31:10.977Z,6.40
2023-04-02T21:33:43.707Z,6.30
2023-04-02T21:36:17.057Z,6.30
2023-04-02T21:38:50.189Z,6.40
2023-04-02T21:41:20.896Z,6.60
2023-04-02T21:43:48.459Z,6.60
2023-04-02T21:46:17.841Z,6.50
2023-04-02T21:48:45.762Z,6.40
2023-04-02T21:51:15.474Z,6.40
2023-04-02T21:53:43.347Z,6.50
2023-04-02T21:56:14.212Z,6.70
2023-04-02T21:58:41.322Z,6.60
2023-04-02T22:01:14.077Z,6.60
2023-04-02T22:03:47.598Z,6.60
2023-04-02T22:06:20.340Z,6.60
2023-04-02T22:08:52.539Z,6.50
2023-04-02T22:11:21.792Z,6.40
2023-04-02T22:13:50.213Z,6.50
2023-04-02T22:16:19.665Z,6.50
2023-04-02T22:18:48.144Z,6.60
2023-04-02T22:21:16.088Z,6.50
2023-04-02T22:23:44.171Z,6.50
2023-04-02T22:26:12.397Z,6.30
2023-04-02T22:28:40.444Z,6.30
2023-04-02T22:31:13.558Z,6.20
2023-04-02T22:33:41.506Z,6.10
2023-04-02T22:36:08.989Z,6.20
2023-04-02T22:38:36.562Z,6.10
2023-04-02T22:41:04.746Z,6.10
2023-04-02T22:43:31.830Z,6.10
2023-04-02T22:45:58.788Z,6.10
2023-04-02T22:48:25.902Z,5.90
2023-04-02T22:50:53.657Z,5.70
2023-04-02T22:53:20.538Z,5.70
2023-04-02T22:55:47.618Z,5.70
2023-04-02T22:58:14.416Z,5.60
2023-04-02T23:00:41.905Z,5.70
2023-04-02T23:03:08.876Z,5.60
2023-04-02T23:05:35.901Z,5.60
2023-04-02T23:08:02.996Z,5.50
2023-04-02T23:10:30.761Z,5.50
2023-04-02T23:12:57.919Z,5.60
2023-04-02T23:15:24.711Z,5.80
2023-04-02T23:17:51.802Z,5.70
2023-04-02T23:20:18.776Z,5.60
2023-04-02T23:22:45.883Z,5.50
2023-04-02T23:25:12.697Z,5.50
2023-04-02T23:27:40.103Z,5.50
2023-04-02T23:30:08.795Z,5.40
2023-04-02T23:32:35.763Z,5.50
2023-04-02T23:35:02.790Z,5.50
2023-04-02T23:37:29.585Z,5.50
2023-04-02T23:39:56.637Z,5.60
2023-04-02T23:42:23.608Z,5.50
2023-04-02T23:44:50.497Z,5.50
2023-04-02T23:47:17.379Z,5.50
2023-04-02T23:49:47.895Z,5.60
2023-04-02T23:52:15.614Z,5.60
2023-04-02T23:54:42.737Z,5.70
2023-04-02T23:57:10.083Z,5.60
2023-04-02T23:59:37.089Z,5.70
